Time;durP1;ratioP1;P1;durP2;ratioP2;P2;SDS_P1;SDS_P2;PMS_P1;PMS_P2;Temp;Humidity;BMP_temperature;BMP_pressure;BME280_temperature;BME280_humidity;BME280_pressure;Samples;Min_cycle;Max_cycle;Signal;HPM_P1;HPM_P2
2021/12/16 00:11:02;;;;;;;52.35;41.33;;;;;;;;;;5116400;27;20076;-42
2021/12/16 00:32:37;;;;;;;52.67;41.75;;;;;;;;;;5117182;27;20098;-41
2021/12/16 00:35:03;;;;;;;50.88;39.47;;;;;;;;;;5118541;27;20031;-40
2021/12/16 00:37:29;;;;;;;42.85;38.53;;;;;;;;;;5117288;27;20019;-43
2021/12/16 00:39:54;;;;;;;45.05;35.53;;;;;;;;;;5116986;27;20027;-45
2021/12/16 00:45:09;;;;;;;48.60;36.53;;;;;;;;;;5116838;27;20167;-42
2021/12/16 00:47:54;;;;;;;45.28;30.83;;;;;;;;;;5116496;27;20077;-46
2021/12/16 00:55:56;;;;;;;29.73;23.63;;;;;;;;;;5118670;27;20026;-44
2021/12/16 00:58:26;;;;;;;45.00;30.02;;;;;;;;;;5117556;27;20494;-42
2021/12/16 01:01:04;;;;;;;24.83;21.08;;;;;;;;;;5115913;27;20034;-43
2021/12/16 01:03:42;;;;;;;34.35;23.38;;;;;;;;;;5119637;27;20004;-44
2021/12/16 01:47:39;;;;;;;16.63;10.13;;;;;;;;;;5116763;27;20037;-46
2021/12/16 01:50:10;;;;;;;10.85;8.63;;;;;;;;;;5115420;27;20038;-47
2021/12/16 01:55:21;;;;;;;24.83;12.73;;;;;;;;;;5115049;27;20568;-45
2021/12/16 01:57:52;;;;;;;13.80;12.38;;;;;;;;;;5120529;28;20030;-46
2021/12/16 02:00:31;;;;;;;12.57;11.30;;;;;;;;;;5113744;28;20027;-44
2021/12/16 02:03:05;;;;;;;13.02;11.02;;;;;;;;;;5117890;28;20104;-45
2021/12/16 02:08:28;;;;;;;13.10;11.43;;;;;;;;;;5118715;28;20038;-46
2021/12/16 02:11:06;;;;;;;10.48;9.40;;;;;;;;;;5119856;28;20032;-46
2021/12/16 02:13:48;;;;;;;11.35;8.85;;;;;;;;;;5117496;28;20156;-44
2021/12/16 02:37:32;;;;;;;12.15;10.88;;;;;;;;;;5112949;28;20020;-45
2021/12/16 02:39:57;;;;;;;18.15;10.65;;;;;;;;;;5113146;27;20012;-45
2021/12/16 02:42:32;;;;;;;15.10;10.45;;;;;;;;;;5119005;27;20027;-43
2021/12/16 02:49:58;;;;;;;14.65;9.13;;;;;;;;;;5122395;27;20023;-46
2021/12/16 02:52:25;;;;;;;14.75;8.85;;;;;;;;;;5121330;27;20027;-46
2021/12/16 02:54:51;;;;;;;12.85;7.88;;;;;;;;;;5120146;27;20341;-49
2021/12/16 02:57:17;;;;;;;13.30;8.93;;;;;;;;;;5118251;27;20023;-41
2021/12/16 02:59:43;;;;;;;12.55;9.40;;;;;;;;;;5116470;27;20511;-46
2021/12/16 03:02:11;;;;;;;8.10;7.22;;;;;;;;;;5119213;27;20031;-43
2021/12/16 03:04:37;;;;;;;8.88;6.80;;;;;;;;;;5117526;27;20470;-44
2021/12/16 03:07:04;;;;;;;7.90;6.82;;;;;;;;;;5114032;27;20027;-43
2021/12/16 03:14:46;;;;;;;11.35;9.40;;;;;;;;;;5115972;27;20067;-46
2021/12/16 03:22:07;;;;;;;8.45;6.15;;;;;;;;;;5119154;27;20170;-44
2021/12/16 03:25:13;;;;;;;14.52;8.80;;;;;;;;;;5119693;27;20043;-42
2021/12/16 03:27:44;;;;;;;;;;;;;;;;;;5117851;27;20079;-41
2021/12/16 03:37:50;;;;;;;8.15;6.55;;;;;;;;;;5117671;27;20035;-43
2021/12/16 03:40:16;;;;;;;9.32;6.68;;;;;;;;;;5124516;27;20416;-41
2021/12/16 03:42:45;;;;;;;9.57;8.48;;;;;;;;;;5122618;27;20228;-41
2021/12/16 03:46:25;;;;;;;10.50;9.50;;;;;;;;;;5116507;27;20347;-41
2021/12/16 03:47:55;;;;;;;14.10;9.25;;;;;;;;;;5118459;27;20023;-42
2021/12/16 03:50:21;;;;;;;17.65;9.55;;;;;;;;;;5121355;27;20122;-40
2021/12/16 03:52:48;;;;;;;9.52;7.90;;;;;;;;;;5118495;27;20020;-46
2021/12/16 03:55:14;;;;;;;11.02;8.52;;;;;;;;;;5117359;27;20546;-42
2021/12/16 03:57:40;;;;;;;15.18;7.90;;;;;;;;;;5120608;27;20043;-41
2021/12/16 04:00:11;;;;;;;10.68;6.32;;;;;;;;;;5116200;27;20018;-44
2021/12/16 04:02:36;;;;;;;;;;;;;;;;;;5119023;27;20020;-44
2021/12/16 04:05:03;;;;;;;11.30;8.20;;;;;;;;;;5120226;27;19938;-42
2021/12/16 04:07:30;;;;;;;11.50;8.13;;;;;;;;;;5116165;27;20256;-44
2021/12/16 04:09:55;;;;;;;15.73;8.63;;;;;;;;;;5117968;27;20022;-41
2021/12/16 04:12:24;;;;;;;18.35;9.32;;;;;;;;;;5115135;27;20019;-44
2021/12/16 04:14:50;;;;;;;9.93;7.85;;;;;;;;;;5117579;27;20030;-41
2021/12/16 04:17:17;;;;;;;8.55;5.95;;;;;;;;;;5116635;27;20039;-41
2021/12/16 04:19:42;;;;;;;8.00;5.32;;;;;;;;;;5116929;27;20114;-48
2021/12/16 04:22:11;;;;;;;7.70;5.30;;;;;;;;;;5119639;27;20483;-41
2021/12/16 04:24:37;;;;;;;6.53;5.15;;;;;;;;;;5116623;27;20384;-42
2021/12/16 04:27:03;;;;;;;8.38;5.97;;;;;;;;;;5119916;27;20022;-41
2021/12/16 04:29:29;;;;;;;12.38;5.90;;;;;;;;;;5119946;27;20011;-45
2021/12/16 04:31:55;;;;;;;6.25;4.85;;;;;;;;;;5120271;27;20329;-45
2021/12/16 04:34:21;;;;;;;8.07;5.90;;;;;;;;;;5114330;27;20613;-46
2021/12/16 04:36:47;;;;;;;9.68;5.97;;;;;;;;;;5119244;27;20047;-44
2021/12/16 04:39:14;;;;;;;12.27;9.05;;;;;;;;;;5119469;27;20227;-43
2021/12/16 04:41:40;;;;;;;17.13;7.88;;;;;;;;;;5119120;27;20020;-44
2021/12/16 04:44:14;;;;;;;15.88;8.05;;;;;;;;;;5117631;27;20031;-42
2021/12/16 04:46:39;;;;;;;11.77;7.25;;;;;;;;;;5116682;27;20015;-42
2021/12/16 04:49:05;;;;;;;13.38;8.48;;;;;;;;;;5114440;27;20495;-42
2021/12/16 04:51:32;;;;;;;7.93;5.78;;;;;;;;;;5114789;27;20484;-43
2021/12/16 04:53:58;;;;;;;10.23;7.68;;;;;;;;;;5113312;27;20054;-42
2021/12/16 04:56:23;;;;;;;9.25;7.38;;;;;;;;;;5122768;27;20111;-40
2021/12/16 04:58:50;;;;;;;7.10;6.50;;;;;;;;;;5117098;27;20468;-41
2021/12/16 05:01:16;;;;;;;16.58;6.90;;;;;;;;;;5120850;27;20337;-42
2021/12/16 05:03:41;;;;;;;12.63;6.07;;;;;;;;;;5117171;27;20015;-44
2021/12/16 05:06:07;;;;;;;9.65;6.45;;;;;;;;;;5115552;27;20083;-43
2021/12/16 05:08:33;;;;;;;8.95;6.50;;;;;;;;;;5117808;27;20023;-42
2021/12/16 05:11:01;;;;;;;10.10;7.75;;;;;;;;;;5120175;27;20149;-44
2021/12/16 05:13:27;;;;;;;8.23;7.30;;;;;;;;;;5115507;27;20089;-43
2021/12/16 05:15:54;;;;;;;14.23;8.80;;;;;;;;;;5113929;27;20024;-42
2021/12/16 05:18:24;;;;;;;9.27;8.30;;;;;;;;;;5114112;27;20027;-41
2021/12/16 05:20:50;;;;;;;9.57;8.45;;;;;;;;;;5116878;27;20031;-42
2021/12/16 05:28:29;;;;;;;12.38;7.43;;;;;;;;;;5117529;27;20072;-41
2021/12/16 05:30:55;;;;;;;5.60;4.88;;;;;;;;;;5113034;27;20015;-42
2021/12/16 05:33:21;;;;;;;10.02;6.80;;;;;;;;;;5117622;27;20028;-44
2021/12/16 05:35:46;;;;;;;8.05;6.05;;;;;;;;;;5115037;27;20030;-43
2021/12/16 05:38:11;;;;;;;11.38;10.05;;;;;;;;;;5116784;27;20019;-47
2021/12/16 05:40:37;;;;;;;12.50;5.72;;;;;;;;;;5116437;27;20107;-40
2021/12/16 05:43:06;;;;;;;8.55;7.53;;;;;;;;;;5121683;27;20068;-43
2021/12/16 05:45:32;;;;;;;9.27;6.80;;;;;;;;;;5116436;27;20032;-43
2021/12/16 05:47:58;;;;;;;8.07;6.05;;;;;;;;;;5116701;27;20016;-43
2021/12/16 05:50:24;;;;;;;7.35;5.10;;;;;;;;;;5115401;27;20083;-41
2021/12/16 05:52:49;;;;;;;9.82;8.13;;;;;;;;;;5118731;27;20019;-43
2021/12/16 05:55:15;;;;;;;8.18;5.93;;;;;;;;;;5113819;27;20372;-41
2021/12/16 05:57:41;;;;;;;12.60;6.90;;;;;;;;;;5116539;27;20023;-41
2021/12/16 06:00:09;;;;;;;5.78;5.15;;;;;;;;;;5114068;28;20037;-40
2021/12/16 06:02:34;;;;;;;6.65;4.15;;;;;;;;;;5112362;28;20135;-45
2021/12/16 06:05:00;;;;;;;7.47;5.25;;;;;;;;;;5118757;28;20107;-43
2021/12/16 06:07:25;;;;;;;8.85;6.65;;;;;;;;;;5118427;28;20457;-41
2021/12/16 06:09:50;;;;;;;12.90;7.53;;;;;;;;;;5116407;28;20418;-40
2021/12/16 06:12:16;;;;;;;11.13;6.40;;;;;;;;;;5116704;28;20072;-41
2021/12/16 06:14:56;;;;;;;9.75;5.93;;;;;;;;;;5115275;27;20027;-43
2021/12/16 06:28:27;;;;;;;17.05;9.50;;;;;;;;;;5120877;27;20076;-45
2021/12/16 06:30:52;;;;;;;12.35;8.65;;;;;;;;;;5124008;27;20027;-42
2021/12/16 06:33:19;;;;;;;17.00;9.38;;;;;;;;;;5117122;27;20464;-44
2021/12/16 06:35:45;;;;;;;13.10;11.60;;;;;;;;;;5116410;27;20026;-42
2021/12/16 06:38:10;;;;;;;11.85;10.60;;;;;;;;;;5113722;27;20023;-42
2021/12/16 06:40:35;;;;;;;16.20;10.70;;;;;;;;;;5124695;27;20494;-41
2021/12/16 06:43:02;;;;;;;20.35;16.88;;;;;;;;;;5119690;27;20396;-40
2021/12/16 06:45:32;;;;;;;17.77;13.95;;;;;;;;;;5121886;27;20015;-40
2021/12/16 06:48:03;;;;;;;15.57;12.85;;;;;;;;;;5120408;27;20031;-42
2021/12/16 06:50:51;;;;;;;29.17;21.40;;;;;;;;;;5123290;27;20035;-40
2021/12/16 06:53:24;;;;;;;29.17;24.63;;;;;;;;;;5123515;27;20024;-40
2021/12/16 06:56:13;;;;;;;24.83;21.20;;;;;;;;;;5120551;27;20078;-41
2021/12/16 06:58:48;;;;;;;28.88;19.40;;;;;;;;;;5124151;27;20498;-41
2021/12/16 07:01:27;;;;;;;32.03;26.75;;;;;;;;;;5114954;27;20034;-39
2021/12/16 07:03:52;;;;;;;36.63;27.58;;;;;;;;;;5120641;27;20553;-47
2021/12/16 07:06:20;;;;;;;36.65;25.70;;;;;;;;;;5117438;27;20020;-44
2021/12/16 07:08:46;;;;;;;26.40;22.55;;;;;;;;;;5114320;27;20016;-40
2021/12/16 07:11:12;;;;;;;29.83;19.23;;;;;;;;;;5115597;27;20055;-41
2021/12/16 07:13:41;;;;;;;25.65;21.20;;;;;;;;;;5121145;27;20038;-42
2021/12/16 07:16:07;;;;;;;25.48;22.67;;;;;;;;;;5117418;27;20072;-45
2021/12/16 07:18:32;;;;;;;25.88;23.20;;;;;;;;;;5120682;27;20027;-44
2021/12/16 07:20:58;;;;;;;25.20;22.00;;;;;;;;;;5117604;27;20066;-42
2021/12/16 07:23:23;;;;;;;39.05;26.02;;;;;;;;;;5116279;28;20019;-42
2021/12/16 07:25:48;;;;;;;33.22;25.77;;;;;;;;;;5117697;28;20015;-42
2021/12/16 07:28:14;;;;;;;27.17;24.30;;;;;;;;;;5120403;28;20105;-42
2021/12/16 07:30:41;;;;;;;44.33;25.60;;;;;;;;;;5115782;28;20046;-41
2021/12/16 07:33:06;;;;;;;30.80;25.95;;;;;;;;;;5120133;28;20102;-40
2021/12/16 07:35:32;;;;;;;34.80;27.90;;;;;;;;;;5115924;28;20111;-44
2021/12/16 07:37:58;;;;;;;21.42;19.25;;;;;;;;;;5117778;28;20794;-41
2021/12/16 07:40:25;;;;;;;29.52;17.23;;;;;;;;;;5116232;28;20067;-40
2021/12/16 07:45:27;;;;;;;22.95;18.77;;;;;;;;;;5117355;28;20652;-41
2021/12/16 07:47:52;;;;;;;35.28;19.25;;;;;;;;;;5117209;28;20118;-43
2021/12/16 07:50:18;;;;;;;25.98;20.70;;;;;;;;;;5118857;28;20107;-42
2021/12/16 07:52:43;;;;;;;27.08;21.50;;;;;;;;;;5121508;28;20032;-45
2021/12/16 07:55:09;;;;;;;50.55;29.95;;;;;;;;;;5114647;28;20035;-40
2021/12/16 07:57:35;;;;;;;30.42;24.73;;;;;;;;;;5117167;28;20055;-39
2021/12/16 08:00:00;;;;;;;47.20;28.05;;;;;;;;;;5116717;28;20114;-41
2021/12/16 08:02:26;;;;;;;38.63;27.35;;;;;;;;;;5115933;28;20061;-41
2021/12/16 08:04:52;;;;;;;48.47;33.33;;;;;;;;;;5121163;28;20085;-45
2021/12/16 08:07:20;;;;;;;39.95;33.00;;;;;;;;;;5112058;28;20027;-42
2021/12/16 08:09:46;;;;;;;61.20;34.47;;;;;;;;;;5093304;28;20027;-45
2021/12/16 08:12:13;;;;;;;44.13;35.72;;;;;;;;;;5113453;28;20027;-42
2021/12/16 08:14:38;;;;;;;85.70;38.88;;;;;;;;;;5115019;28;20031;-44
2021/12/16 08:17:04;;;;;;;57.17;35.80;;;;;;;;;;5114250;28;20408;-40
2021/12/16 08:19:30;;;;;;;64.93;34.63;;;;;;;;;;5066875;27;1304146;-42
2021/12/16 08:21:55;;;;;;;56.03;34.42;;;;;;;;;;5114128;27;20118;-44
2021/12/16 08:24:20;;;;;;;52.70;35.30;;;;;;;;;;5117628;27;20047;-43
2021/12/16 08:26:47;;;;;;;47.67;33.47;;;;;;;;;;5115650;27;20058;-41
2021/12/16 08:29:12;;;;;;;40.72;29.60;;;;;;;;;;5112389;27;20543;-40
2021/12/16 08:31:38;;;;;;;47.63;33.72;;;;;;;;;;5116011;27;20106;-42
2021/12/16 08:34:04;;;;;;;39.75;33.28;;;;;;;;;;5114363;27;20582;-42
2021/12/16 08:36:30;;;;;;;39.90;35.78;;;;;;;;;;5114638;27;20034;-41
2021/12/16 08:38:55;;;;;;;40.13;35.97;;;;;;;;;;5118509;27;20023;-44
2021/12/16 08:41:22;;;;;;;57.55;43.67;;;;;;;;;;5114048;27;20019;-43
2021/12/16 08:43:49;;;;;;;59.28;52.47;;;;;;;;;;5119092;27;20475;-41
2021/12/16 08:46:15;;;;;;;53.47;47.33;;;;;;;;;;5115522;27;20091;-42
2021/12/16 08:48:41;;;;;;;48.95;32.03;;;;;;;;;;5114821;27;20452;-46
2021/12/16 08:51:07;;;;;;;44.03;34.00;;;;;;;;;;5116503;27;20024;-43
2021/12/16 08:53:33;;;;;;;65.47;48.58;;;;;;;;;;5114220;27;20033;-42
2021/12/16 08:55:58;;;;;;;65.38;58.95;;;;;;;;;;5113071;27;20407;-42
2021/12/16 08:58:25;;;;;;;110.75;89.70;;;;;;;;;;5115746;27;20118;-43
2021/12/16 09:00:54;;;;;;;82.68;60.17;;;;;;;;;;5115903;27;20011;-45
2021/12/16 09:03:19;;;;;;;67.50;60.05;;;;;;;;;;5114983;27;20047;-46
2021/12/16 09:05:44;;;;;;;78.53;64.15;;;;;;;;;;5117860;27;20186;-44
2021/12/16 09:08:10;;;;;;;53.50;48.30;;;;;;;;;;5097242;27;20027;-42
2021/12/16 09:10:36;;;;;;;55.33;46.90;;;;;;;;;;5111868;27;20115;-39
2021/12/16 09:13:03;;;;;;;73.35;50.38;;;;;;;;;;5116137;27;20035;-39
2021/12/16 09:15:37;;;;;;;70.18;48.63;;;;;;;;;;5112469;27;20083;-44
2021/12/16 09:18:03;;;;;;;70.13;42.75;;;;;;;;;;5115652;27;20015;-43
2021/12/16 09:20:28;;;;;;;70.00;42.75;;;;;;;;;;5111314;27;20439;-38
2021/12/16 09:22:54;;;;;;;60.10;44.97;;;;;;;;;;5112899;27;20027;-43
2021/12/16 09:25:20;;;;;;;64.10;52.63;;;;;;;;;;5114842;27;20429;-41
2021/12/16 09:27:45;;;;;;;77.57;56.97;;;;;;;;;;5113115;27;20063;-44
2021/12/16 09:30:12;;;;;;;57.53;43.90;;;;;;;;;;5116382;27;20579;-40
2021/12/16 09:32:37;;;;;;;51.00;45.20;;;;;;;;;;5114360;27;20218;-43
2021/12/16 09:35:04;;;;;;;54.88;49.13;;;;;;;;;;5113108;27;20240;-40
2021/12/16 09:37:29;;;;;;;69.60;49.67;;;;;;;;;;5116251;27;20023;-40
2021/12/16 09:39:55;;;;;;;59.05;45.67;;;;;;;;;;5114173;27;20038;-38
2021/12/16 09:42:21;;;;;;;52.25;41.67;;;;;;;;;;5113780;27;20030;-37
2021/12/16 09:44:46;;;;;;;48.38;39.72;;;;;;;;;;5119677;27;20486;-41
2021/12/16 09:47:13;;;;;;;39.85;35.08;;;;;;;;;;5113103;27;20525;-45
2021/12/16 09:49:39;;;;;;;34.08;30.30;;;;;;;;;;5109188;27;20019;-43
2021/12/16 09:52:06;;;;;;;44.50;39.72;;;;;;;;;;5109169;27;20031;-41
2021/12/16 09:54:32;;;;;;;52.22;43.80;;;;;;;;;;5116432;27;20019;-43
2021/12/16 09:56:57;;;;;;;62.35;55.58;;;;;;;;;;5113750;27;20140;-41
2021/12/16 09:59:24;;;;;;;47.55;40.05;;;;;;;;;;5113045;27;20035;-42
2021/12/16 10:01:51;;;;;;;37.40;31.77;;;;;;;;;;5112147;28;20039;-41
2021/12/16 10:04:20;;;;;;;37.15;31.50;;;;;;;;;;5109409;28;20088;-44
2021/12/16 10:06:45;;;;;;;31.38;26.88;;;;;;;;;;5113023;28;20205;-44
2021/12/16 10:09:11;;;;;;;32.97;27.95;;;;;;;;;;5116897;28;20817;-44
2021/12/16 10:11:38;;;;;;;26.73;23.92;;;;;;;;;;5111142;28;20092;-37
2021/12/16 10:15:03;;;;;;;17.83;13.65;;;;;;;;;;5113553;28;20030;-37
2021/12/16 10:19:34;;;;;;;43.88;23.10;;;;;;;;;;5117281;28;20066;-43
2021/12/16 10:22:19;;;;;;;21.75;17.85;;;;;;;;;;5111960;28;20023;-44
2021/12/16 10:24:44;;;;;;;27.10;21.23;;;;;;;;;;5111467;28;20024;-43
2021/12/16 10:27:12;;;;;;;17.67;14.15;;;;;;;;;;5118349;28;20023;-47
2021/12/16 10:29:39;;;;;;;19.08;10.85;;;;;;;;;;5113232;28;20065;-44
2021/12/16 10:32:06;;;;;;;16.02;14.48;;;;;;;;;;5113797;28;20075;-42
2021/12/16 10:34:31;;;;;;;18.73;14.00;;;;;;;;;;5112743;28;20613;-42
2021/12/16 10:36:59;;;;;;;18.75;13.82;;;;;;;;;;5118994;28;20034;-49
2021/12/16 10:39:27;;;;;;;19.10;14.75;;;;;;;;;;5117878;28;20027;-47
2021/12/16 10:41:58;;;;;;;17.70;13.50;;;;;;;;;;5113773;28;20039;-43
2021/12/16 10:44:24;;;;;;;18.20;13.40;;;;;;;;;;5114664;28;20080;-46
2021/12/16 10:46:59;;;;;;;16.77;13.02;;;;;;;;;;5115821;28;20091;-40
2021/12/16 10:49:25;;;;;;;16.67;14.98;;;;;;;;;;5115305;28;20027;-40
2021/12/16 10:51:54;;;;;;;22.05;15.63;;;;;;;;;;5117341;28;20076;-46
2021/12/16 10:54:26;;;;;;;12.38;10.13;;;;;;;;;;5113551;28;20554;-41
2021/12/16 10:57:12;;;;;;;9.52;7.85;;;;;;;;;;5116368;28;20143;-48
2021/12/16 10:59:45;;;;;;;8.52;6.95;;;;;;;;;;5114435;28;20416;-41
2021/12/16 11:02:16;;;;;;;18.40;6.80;;;;;;;;;;5121461;27;20015;-43
2021/12/16 11:04:41;;;;;;;10.38;6.30;;;;;;;;;;5119143;27;20081;-45
2021/12/16 11:07:21;;;;;;;17.25;10.25;;;;;;;;;;5118901;27;20468;-44
2021/12/16 11:09:49;;;;;;;12.98;9.57;;;;;;;;;;5120669;27;20019;-45
2021/12/16 11:12:14;;;;;;;8.20;5.38;;;;;;;;;;5119814;27;20466;-46
2021/12/16 11:14:42;;;;;;;7.68;5.32;;;;;;;;;;5116192;27;20076;-44
2021/12/16 11:17:09;;;;;;;8.27;4.97;;;;;;;;;;5116659;27;20020;-40
2021/12/16 11:19:37;;;;;;;4.05;3.35;;;;;;;;;;5119708;27;20047;-39
2021/12/16 11:22:04;;;;;;;7.47;4.93;;;;;;;;;;5120350;27;20023;-43
2021/12/16 11:24:30;;;;;;;7.80;4.68;;;;;;;;;;5120387;27;20031;-41
2021/12/16 11:26:55;;;;;;;7.82;5.57;;;;;;;;;;5117833;27;20019;-41
2021/12/16 11:29:22;;;;;;;7.25;4.85;;;;;;;;;;5119528;27;20205;-41
2021/12/16 11:31:48;;;;;;;8.73;3.53;;;;;;;;;;5120257;27;20020;-40
2021/12/16 11:34:14;;;;;;;6.00;2.50;;;;;;;;;;5119651;27;20031;-49
2021/12/16 11:36:42;;;;;;;4.45;3.03;;;;;;;;;;5121978;27;20100;-44
2021/12/16 11:39:08;;;;;;;13.68;10.32;;;;;;;;;;5116702;27;20035;-50
2021/12/16 11:41:39;;;;;;;7.78;4.63;;;;;;;;;;5119444;27;20384;-43
2021/12/16 11:44:07;;;;;;;3.90;3.08;;;;;;;;;;5118913;27;20453;-43
2021/12/16 11:46:52;;;;;;;6.63;3.80;;;;;;;;;;5119513;27;20042;-45
2021/12/16 11:49:24;;;;;;;6.43;2.72;;;;;;;;;;5117532;27;20023;-44
2021/12/16 11:51:52;;;;;;;4.93;2.47;;;;;;;;;;5117477;27;20012;-43
2021/12/16 11:54:26;;;;;;;3.17;2.42;;;;;;;;;;5118702;27;20023;-44
2021/12/16 11:56:54;;;;;;;7.47;4.25;;;;;;;;;;5113909;27;20028;-48
2021/12/16 11:59:21;;;;;;;4.45;3.95;;;;;;;;;;5122442;27;20019;-44
2021/12/16 12:01:48;;;;;;;7.30;5.22;;;;;;;;;;5117664;27;20051;-44
2021/12/16 12:04:13;;;;;;;9.95;5.82;;;;;;;;;;5118371;27;20033;-44
2021/12/16 12:06:42;;;;;;;10.25;7.65;;;;;;;;;;5117643;27;20007;-41
2021/12/16 12:09:08;;;;;;;6.05;4.80;;;;;;;;;;5115015;27;20019;-42
2021/12/16 12:11:35;;;;;;;10.27;6.95;;;;;;;;;;5122309;27;20030;-42
2021/12/16 12:14:08;;;;;;;9.98;5.65;;;;;;;;;;5119009;27;20027;-43
2021/12/16 12:16:34;;;;;;;8.63;5.70;;;;;;;;;;5119999;27;20029;-42
2021/12/16 12:19:14;;;;;;;11.27;5.22;;;;;;;;;;5116425;27;20020;-42
2021/12/16 12:21:39;;;;;;;9.27;5.57;;;;;;;;;;5116898;27;20475;-41
2021/12/16 12:24:04;;;;;;;9.90;5.82;;;;;;;;;;5118402;27;20083;-39
2021/12/16 12:26:32;;;;;;;10.10;7.75;;;;;;;;;;5118941;27;20540;-41
2021/12/16 12:28:59;;;;;;;12.45;7.32;;;;;;;;;;5116471;27;20030;-41
2021/12/16 12:31:25;;;;;;;12.00;9.45;;;;;;;;;;5117594;27;20061;-42
2021/12/16 12:33:51;;;;;;;9.38;7.72;;;;;;;;;;5122871;27;20019;-40
2021/12/16 12:36:17;;;;;;;9.65;6.13;;;;;;;;;;5114811;27;20027;-46
2021/12/16 12:38:42;;;;;;;6.63;5.72;;;;;;;;;;5117868;27;20019;-43
2021/12/16 12:41:08;;;;;;;7.30;5.20;;;;;;;;;;5116345;27;20103;-44
2021/12/16 12:43:33;;;;;;;10.93;4.22;;;;;;;;;;5114048;27;20438;-42
2021/12/16 12:46:00;;;;;;;11.07;6.05;;;;;;;;;;5115101;27;20025;-44
2021/12/16 12:48:25;;;;;;;12.20;6.40;;;;;;;;;;5115335;27;20045;-48
2021/12/16 12:50:51;;;;;;;8.40;4.88;;;;;;;;;;5117335;27;20028;-42
2021/12/16 12:53:21;;;;;;;14.95;6.57;;;;;;;;;;5120958;27;20019;-43
2021/12/16 12:55:49;;;;;;;4.22;3.70;;;;;;;;;;5116700;27;20019;-42
2021/12/16 12:58:20;;;;;;;12.63;3.60;;;;;;;;;;5117011;27;20106;-44
2021/12/16 13:00:48;;;;;;;3.40;2.93;;;;;;;;;;5116756;27;20018;-47
2021/12/16 13:03:17;;;;;;;10.77;4.85;;;;;;;;;;5118251;27;20053;-43
2021/12/16 13:05:49;;;;;;;4.57;2.97;;;;;;;;;;5116260;27;20043;-44
2021/12/16 13:08:17;;;;;;;7.85;4.10;;;;;;;;;;5111210;27;20119;-42
2021/12/16 13:10:44;;;;;;;4.32;2.97;;;;;;;;;;5116508;27;20031;-48
2021/12/16 13:13:30;;;;;;;5.13;3.25;;;;;;;;;;5115331;27;20016;-42
2021/12/16 13:29:42;;;;;;;4.20;2.90;;;;;;;;;;5114823;27;20026;-42
2021/12/16 13:32:39;;;;;;;8.23;4.63;;;;;;;;;;5116003;27;20111;-44
2021/12/16 13:36:00;;;;;;;3.80;2.80;;;;;;;;;;5119195;27;20046;-47
2021/12/16 13:37:54;;;;;;;3.95;3.03;;;;;;;;;;5097339;27;20492;-44
2021/12/16 13:40:28;;;;;;;8.77;2.28;;;;;;;;;;5112757;27;20020;-42
2021/12/16 13:42:59;;;;;;;12.32;3.83;;;;;;;;;;5114653;27;20098;-45
2021/12/16 13:45:36;;;;;;;2.60;1.95;;;;;;;;;;5120401;27;20022;-42
2021/12/16 14:07:27;;;;;;;3.72;2.20;;;;;;;;;;5115037;28;20718;-48
2021/12/16 14:09:59;;;;;;;5.43;3.30;;;;;;;;;;5115945;28;20521;-44
2021/12/16 14:17:45;;;;;;;4.70;3.63;;;;;;;;;;5117834;28;20094;-46
2021/12/16 14:23:18;;;;;;;3.22;2.72;;;;;;;;;;5115287;28;20022;-41
2021/12/16 14:26:10;;;;;;;9.10;5.68;;;;;;;;;;5117342;28;20147;-40
2021/12/16 14:32:00;;;;;;;12.38;7.65;;;;;;;;;;5114957;28;20030;-41
2021/12/16 14:39:49;;;;;;;15.73;11.77;;;;;;;;;;5120550;27;20070;-43
2021/12/16 14:42:22;;;;;;;14.32;7.55;;;;;;;;;;5118163;27;20049;-43
2021/12/16 14:47:54;;;;;;;11.57;10.38;;;;;;;;;;5116367;27;20101;-40
2021/12/16 14:50:27;;;;;;;14.82;7.00;;;;;;;;;;5116969;27;20487;-42
2021/12/16 14:52:52;;;;;;;21.73;9.20;;;;;;;;;;5119166;27;20019;-41
2021/12/16 14:55:18;;;;;;;10.57;9.55;;;;;;;;;;5119856;27;20008;-43
2021/12/16 14:57:47;;;;;;;12.75;10.60;;;;;;;;;;5118570;27;20023;-44
2021/12/16 15:00:13;;;;;;;16.05;11.93;;;;;;;;;;5115984;27;20592;-45
2021/12/16 15:02:40;;;;;;;14.50;11.13;;;;;;;;;;5119890;27;20097;-44
2021/12/16 15:05:29;;;;;;;18.98;13.88;;;;;;;;;;5119188;27;20023;-46
2021/12/16 15:08:03;;;;;;;23.00;13.60;;;;;;;;;;5118412;27;20031;-43
2021/12/16 15:10:28;;;;;;;12.60;9.73;;;;;;;;;;5117323;27;20172;-46
2021/12/16 15:13:05;;;;;;;19.92;9.68;;;;;;;;;;5120667;27;20117;-44
2021/12/16 15:15:39;;;;;;;21.33;19.10;;;;;;;;;;5119420;27;20080;-43
2021/12/16 15:32:02;;;;;;;14.23;11.85;;;;;;;;;;5117814;27;20045;-43
2021/12/16 15:40:12;;;;;;;15.75;13.95;;;;;;;;;;5118588;27;20487;-41
2021/12/16 15:45:10;;;;;;;20.55;11.65;;;;;;;;;;5120438;27;20503;-40
2021/12/16 15:47:55;;;;;;;31.67;14.77;;;;;;;;;;5121221;27;20090;-43
2021/12/16 15:50:40;;;;;;;22.33;20.30;;;;;;;;;;5097622;27;20107;-40
2021/12/16 15:53:08;;;;;;;19.52;13.50;;;;;;;;;;5103357;27;20115;-42
2021/12/16 15:55:34;;;;;;;21.98;19.38;;;;;;;;;;5118770;27;20023;-43
2021/12/16 15:58:01;;;;;;;18.67;16.15;;;;;;;;;;5120944;27;20011;-43
2021/12/16 16:00:27;;;;;;;40.00;27.17;;;;;;;;;;5118298;27;20032;-40
2021/12/16 16:02:55;;;;;;;30.33;25.35;;;;;;;;;;5123823;27;20022;-43
2021/12/16 16:05:20;;;;;;;17.70;15.05;;;;;;;;;;5114170;27;20098;-42
2021/12/16 16:07:46;;;;;;;20.15;13.68;;;;;;;;;;5116061;27;20136;-41
2021/12/16 16:10:15;;;;;;;23.45;16.67;;;;;;;;;;5120687;27;20035;-41
2021/12/16 16:12:40;;;;;;;25.15;20.48;;;;;;;;;;5118856;27;20019;-40
2021/12/16 16:15:18;;;;;;;23.92;17.20;;;;;;;;;;5117014;27;20169;-42
2021/12/16 16:17:55;;;;;;;21.02;16.75;;;;;;;;;;5121701;27;20071;-44
2021/12/16 16:20:22;;;;;;;22.08;15.05;;;;;;;;;;5102787;27;20043;-43
2021/12/16 16:22:47;;;;;;;23.85;17.20;;;;;;;;;;5122642;27;20011;-40
2021/12/16 16:25:12;;;;;;;17.70;15.90;;;;;;;;;;5121166;27;20015;-43
2021/12/16 16:27:38;;;;;;;23.25;18.27;;;;;;;;;;5116712;27;20016;-43
2021/12/16 16:30:05;;;;;;;23.83;21.35;;;;;;;;;;5117070;27;20024;-45
2021/12/16 16:32:50;;;;;;;38.50;19.50;;;;;;;;;;5122303;27;20112;-42
2021/12/16 16:35:16;;;;;;;13.95;12.45;;;;;;;;;;5116138;27;20029;-40
2021/12/16 16:37:41;;;;;;;25.77;17.42;;;;;;;;;;5115943;27;20015;-43
2021/12/16 16:40:10;;;;;;;18.13;16.23;;;;;;;;;;5124254;27;20080;-40
2021/12/16 16:42:37;;;;;;;20.98;17.33;;;;;;;;;;5118032;27;20015;-43
2021/12/16 16:45:04;;;;;;;19.13;14.43;;;;;;;;;;5120284;27;20015;-41
2021/12/16 16:47:34;;;;;;;17.92;11.85;;;;;;;;;;5122856;27;20012;-43
2021/12/16 16:50:00;;;;;;;17.33;15.18;;;;;;;;;;5120877;27;20039;-42
2021/12/16 16:52:30;;;;;;;45.10;30.08;;;;;;;;;;5117651;27;20108;-43
2021/12/16 16:55:01;;;;;;;31.48;24.08;;;;;;;;;;5122764;27;20098;-44
2021/12/16 16:57:26;;;;;;;;;;;;;;;;;;5122049;27;20026;-42
2021/12/16 16:59:53;;;;;;;24.67;18.53;;;;;;;;;;5118726;27;19915;-44
2021/12/16 17:02:38;;;;;;;22.92;17.95;;;;;;;;;;5117172;27;20127;-40
2021/12/16 17:05:03;;;;;;;58.58;49.67;;;;;;;;;;5115608;27;20398;-42
2021/12/16 17:07:38;;;;;;;42.08;32.72;;;;;;;;;;5118592;27;20011;-47
2021/12/16 17:10:05;;;;;;;31.25;23.80;;;;;;;;;;5119803;27;20024;-43
2021/12/16 17:12:36;;;;;;;27.23;23.02;;;;;;;;;;5117392;27;20473;-42
2021/12/16 17:15:21;;;;;;;35.88;23.80;;;;;;;;;;5113734;27;20012;-42
2021/12/16 17:17:49;;;;;;;30.77;25.17;;;;;;;;;;5117329;27;20026;-40
2021/12/16 17:20:18;;;;;;;56.60;48.40;;;;;;;;;;5116616;27;20078;-43
2021/12/16 17:22:49;;;;;;;29.50;21.73;;;;;;;;;;5115453;27;20034;-41
2021/12/16 17:25:15;;;;;;;25.90;21.50;;;;;;;;;;5115759;27;20027;-41
2021/12/16 17:27:42;;;;;;;22.08;17.63;;;;;;;;;;5110894;27;20479;-41
2021/12/16 17:30:22;;;;;;;25.73;19.00;;;;;;;;;;5113093;27;20019;-44
2021/12/16 17:32:48;;;;;;;30.92;27.60;;;;;;;;;;5116069;27;20639;-43
2021/12/16 17:35:25;;;;;;;36.70;32.75;;;;;;;;;;5113443;27;20384;-40
2021/12/16 17:37:53;;;;;;;40.28;36.30;;;;;;;;;;5115947;27;20020;-42
2021/12/16 17:40:22;;;;;;;44.42;40.00;;;;;;;;;;5113635;27;20012;-40
2021/12/16 17:42:55;;;;;;;56.00;46.13;;;;;;;;;;5118422;27;20062;-42
2021/12/16 17:45:23;;;;;;;86.50;65.00;;;;;;;;;;5101026;27;20019;-39
2021/12/16 17:47:50;;;;;;;66.57;59.08;;;;;;;;;;5119217;27;20015;-41
2021/12/16 17:50:18;;;;;;;58.97;48.42;;;;;;;;;;5113269;27;20095;-42
2021/12/16 17:52:48;;;;;;;54.70;45.58;;;;;;;;;;5116246;27;20021;-41
2021/12/16 17:55:15;;;;;;;66.25;59.53;;;;;;;;;;5116046;27;20030;-44
2021/12/16 17:57:43;;;;;;;64.22;57.20;;;;;;;;;;5111842;27;20520;-42
2021/12/16 18:00:23;;;;;;;60.58;49.42;;;;;;;;;;5111713;27;20107;-43
2021/12/16 18:02:49;;;;;;;56.35;45.25;;;;;;;;;;5113557;28;20109;-42
2021/12/16 18:05:15;;;;;;;54.88;49.15;;;;;;;;;;5113979;28;20047;-47
2021/12/16 18:07:41;;;;;;;58.65;52.70;;;;;;;;;;5115135;28;20488;-45
2021/12/16 18:10:08;;;;;;;77.25;65.38;;;;;;;;;;5114476;27;20052;-42
2021/12/16 18:12:34;;;;;;;73.65;65.70;;;;;;;;;;5120148;27;20019;-47
2021/12/16 18:15:10;;;;;;;51.08;42.17;;;;;;;;;;5121374;27;20386;-43
2021/12/16 18:17:39;;;;;;;49.15;43.72;;;;;;;;;;5120802;27;20106;-41
2021/12/16 18:20:16;;;;;;;48.63;39.50;;;;;;;;;;5116320;27;20047;-41